sensor_id;sensor_type;location;lat;lon;timestamp;temperature;humidity
24636;DHT22;12772;49.794;10.024;2022-11-15T00:00:29;11.90;51.50
24636;DHT22;12772;49.794;10.024;2022-11-15T00:04:31;12.40;52.00
24636;DHT22;12772;49.794;10.024;2022-11-15T00:08:33;12.10;51.60
24636;DHT22;12772;49.794;10.024;2022-11-15T00:12:38;12.40;52.00
24636;DHT22;12772;49.794;10.024;2022-11-15T00:16:40;12.40;52.10
24636;DHT22;12772;49.794;10.024;2022-11-15T00:20:42;12.30;52.10
24636;DHT22;12772;49.794;10.024;2022-11-15T00:24:44;12.30;52.90
24636;DHT22;12772;49.794;10.024;2022-11-15T00:28:46;11.80;51.80
24636;DHT22;12772;49.794;10.024;2022-11-15T00:32:48;12.20;52.30
24636;DHT22;12772;49.794;10.024;2022-11-15T00:36:51;12.20;52.50
24636;DHT22;12772;49.794;10.024;2022-11-15T00:40:53;12.20;52.50
24636;DHT22;12772;49.794;10.024;2022-11-15T00:44:55;12.00;52.30
24636;DHT22;12772;49.794;10.024;2022-11-15T00:48:57;12.10;52.50
24636;DHT22;12772;49.794;10.024;2022-11-15T00:52:59;12.10;52.60
24636;DHT22;12772;49.794;10.024;2022-11-15T00:57:01;11.80;52.40
24636;DHT22;12772;49.794;10.024;2022-11-15T01:01:08;11.80;52.50
24636;DHT22;12772;49.794;10.024;2022-11-15T01:05:10;12.00;52.70
24636;DHT22;12772;49.794;10.024;2022-11-15T01:09:13;11.60;52.30
24636;DHT22;12772;49.794;10.024;2022-11-15T01:13:15;11.70;52.50
24636;DHT22;12772;49.794;10.024;2022-11-15T01:17:17;11.70;52.50
24636;DHT22;12772;49.794;10.024;2022-11-15T01:21:19;11.90;52.90
24636;DHT22;12772;49.794;10.024;2022-11-15T01:25:21;11.50;52.40
24636;DHT22;12772;49.794;10.024;2022-11-15T01:29:23;11.90;52.80
24636;DHT22;12772;49.794;10.024;2022-11-15T01:33:25;12.00;52.90
24636;DHT22;12772;49.794;10.024;2022-11-15T01:37:27;11.50;52.30
24636;DHT22;12772;49.794;10.024;2022-11-15T01:41:32;11.50;52.50
24636;DHT22;12772;49.794;10.024;2022-11-15T01:45:34;11.70;52.90
24636;DHT22;12772;49.794;10.024;2022-11-15T01:49:39;11.70;53.20
24636;DHT22;12772;49.794;10.024;2022-11-15T01:53:45;11.70;53.40
24636;DHT22;12772;49.794;10.024;2022-11-15T01:57:51;11.70;53.40
24636;DHT22;12772;49.794;10.024;2022-11-15T02:01:55;11.30;52.90
24636;DHT22;12772;49.794;10.024;2022-11-15T02:05:57;11.30;52.80
24636;DHT22;12772;49.794;10.024;2022-11-15T02:10:14;11.70;53.30
24636;DHT22;12772;49.794;10.024;2022-11-15T02:14:18;11.70;53.20
24636;DHT22;12772;49.794;10.024;2022-11-15T02:18:48;11.70;53.20
24636;DHT22;12772;49.794;10.024;2022-11-15T02:23:11;11.70;53.20
24636;DHT22;12772;49.794;10.024;2022-11-15T02:31:53;11.70;53.10
24636;DHT22;12772;49.794;10.024;2022-11-15T02:35:59;11.50;52.80
24636;DHT22;12772;49.794;10.024;2022-11-15T02:44:35;11.30;52.60
24636;DHT22;12772;49.794;10.024;2022-11-15T02:48:39;11.60;52.90
24636;DHT22;12772;49.794;10.024;2022-11-15T02:52:41;11.50;53.00
24636;DHT22;12772;49.794;10.024;2022-11-15T02:56:46;11.30;52.90
24636;DHT22;12772;49.794;10.024;2022-11-15T03:01:07;11.40;53.10
24636;DHT22;12772;49.794;10.024;2022-11-15T03:05:19;11.00;52.70
24636;DHT22;12772;49.794;10.024;2022-11-15T03:09:44;11.30;53.10
24636;DHT22;12772;49.794;10.024;2022-11-15T03:13:58;11.30;53.30
24636;DHT22;12772;49.794;10.024;2022-11-15T03:18:08;10.90;53.00
24636;DHT22;12772;49.794;10.024;2022-11-15T03:22:16;11.00;53.30
24636;DHT22;12772;49.794;10.024;2022-11-15T03:26:21;10.80;53.10
24636;DHT22;12772;49.794;10.024;2022-11-15T03:30:25;10.70;53.10
24636;DHT22;12772;49.794;10.024;2022-11-15T03:38:56;10.70;53.20
24636;DHT22;12772;49.794;10.024;2022-11-15T03:43:51;10.80;53.50
24636;DHT22;12772;49.794;10.024;2022-11-15T03:47:34;10.60;53.30
24636;DHT22;12772;49.794;10.024;2022-11-15T03:51:38;10.90;53.70
24636;DHT22;12772;49.794;10.024;2022-11-15T03:55:40;10.60;53.30
24636;DHT22;12772;49.794;10.024;2022-11-15T03:59:42;10.80;53.60
24636;DHT22;12772;49.794;10.024;2022-11-15T04:03:44;10.50;53.30
24636;DHT22;12772;49.794;10.024;2022-11-15T04:07:46;10.80;53.60
24636;DHT22;12772;49.794;10.024;2022-11-15T04:11:48;10.50;53.30
24636;DHT22;12772;49.794;10.024;2022-11-15T04:15:51;10.30;53.00
24636;DHT22;12772;49.794;10.024;2022-11-15T04:19:53;10.20;53.10
24636;DHT22;12772;49.794;10.024;2022-11-15T04:24:13;10.20;53.20
24636;DHT22;12772;49.794;10.024;2022-11-15T04:28:15;10.60;53.60
24636;DHT22;12772;49.794;10.024;2022-11-15T04:32:17;10.20;53.20
24636;DHT22;12772;49.794;10.024;2022-11-15T04:36:19;10.30;53.40
24636;DHT22;12772;49.794;10.024;2022-11-15T04:40:39;10.30;53.60
24636;DHT22;12772;49.794;10.024;2022-11-15T04:44:41;10.00;53.50
24636;DHT22;12772;49.794;10.024;2022-11-15T04:48:43;10.10;53.90
24636;DHT22;12772;49.794;10.024;2022-11-15T04:52:53;9.90;55.10
24636;DHT22;12772;49.794;10.024;2022-11-15T04:56:55;10.00;54.00
24636;DHT22;12772;49.794;10.024;2022-11-15T05:00:57;9.90;55.30
24636;DHT22;12772;49.794;10.024;2022-11-15T05:04:59;10.40;54.70
24636;DHT22;12772;49.794;10.024;2022-11-15T05:09:01;10.30;54.60
24636;DHT22;12772;49.794;10.024;2022-11-15T05:13:03;10.20;54.30
24636;DHT22;12772;49.794;10.024;2022-11-15T05:17:05;10.30;54.30
24636;DHT22;12772;49.794;10.024;2022-11-15T05:21:11;10.00;53.90
24636;DHT22;12772;49.794;10.024;2022-11-15T05:25:14;9.90;55.00
24636;DHT22;12772;49.794;10.024;2022-11-15T05:29:16;9.90;55.10
24636;DHT22;12772;49.794;10.024;2022-11-15T05:33:18;10.20;54.20
24636;DHT22;12772;49.794;10.024;2022-11-15T05:37:20;9.90;55.10
24636;DHT22;12772;49.794;10.024;2022-11-15T05:41:34;10.40;54.50
24636;DHT22;12772;49.794;10.024;2022-11-15T05:45:37;10.30;54.50
24636;DHT22;12772;49.794;10.024;2022-11-15T05:49:40;10.10;54.20
24636;DHT22;12772;49.794;10.024;2022-11-15T05:53:44;9.70;55.00
24636;DHT22;12772;49.794;10.024;2022-11-15T05:57:47;10.00;54.10
24636;DHT22;12772;49.794;10.024;2022-11-15T06:01:49;9.60;54.90
24636;DHT22;12772;49.794;10.024;2022-11-15T06:05:51;9.60;54.90
24636;DHT22;12772;49.794;10.024;2022-11-15T06:09:53;9.50;54.80
24636;DHT22;12772;49.794;10.024;2022-11-15T06:13:56;10.00;54.80
24636;DHT22;12772;49.794;10.024;2022-11-15T06:17:58;9.90;55.20
24636;DHT22;12772;49.794;10.024;2022-11-15T06:22:00;10.00;54.10
24636;DHT22;12772;49.794;10.024;2022-11-15T06:26:03;10.00;53.90
24636;DHT22;12772;49.794;10.024;2022-11-15T06:30:06;10.20;54.00
24636;DHT22;12772;49.794;10.024;2022-11-15T06:34:08;10.10;53.80
24636;DHT22;12772;49.794;10.024;2022-11-15T06:38:10;9.90;54.80
24636;DHT22;12772;49.794;10.024;2022-11-15T06:42:12;10.10;53.80
24636;DHT22;12772;49.794;10.024;2022-11-15T06:46:14;9.70;54.50
24636;DHT22;12772;49.794;10.024;2022-11-15T06:50:16;9.70;54.50
24636;DHT22;12772;49.794;10.024;2022-11-15T06:54:18;9.70;54.50
24636;DHT22;12772;49.794;10.024;2022-11-15T06:58:21;9.50;54.40
24636;DHT22;12772;49.794;10.024;2022-11-15T07:02:23;9.90;54.80
24636;DHT22;12772;49.794;10.024;2022-11-15T07:06:25;10.00;53.80
24636;DHT22;12772;49.794;10.024;2022-11-15T07:10:28;9.90;55.00
24636;DHT22;12772;49.794;10.024;2022-11-15T07:14:30;9.90;55.30
24636;DHT22;12772;49.794;10.024;2022-11-15T07:18:37;9.90;55.30
24636;DHT22;12772;49.794;10.024;2022-11-15T07:22:40;9.90;55.00
24636;DHT22;12772;49.794;10.024;2022-11-15T07:26:42;9.90;54.80
24636;DHT22;12772;49.794;10.024;2022-11-15T07:30:44;9.80;55.60
24636;DHT22;12772;49.794;10.024;2022-11-15T07:34:46;9.80;55.00
24636;DHT22;12772;49.794;10.024;2022-11-15T07:38:48;9.50;54.80
24636;DHT22;12772;49.794;10.024;2022-11-15T07:42:50;9.70;55.10
24636;DHT22;12772;49.794;10.024;2022-11-15T07:46:56;9.50;55.00
24636;DHT22;12772;49.794;10.024;2022-11-15T07:50:58;10.00;54.30
24636;DHT22;12772;49.794;10.024;2022-11-15T07:55:00;9.60;55.00
24636;DHT22;12772;49.794;10.024;2022-11-15T07:59:03;9.90;55.30
24636;DHT22;12772;49.794;10.024;2022-11-15T08:03:10;10.00;54.20
24636;DHT22;12772;49.794;10.024;2022-11-15T08:07:12;10.30;54.50
24636;DHT22;12772;49.794;10.024;2022-11-15T08:11:14;9.80;55.10
24636;DHT22;12772;49.794;10.024;2022-11-15T08:15:16;10.30;54.20
24636;DHT22;12772;49.794;10.024;2022-11-15T08:19:18;10.20;54.00
24636;DHT22;12772;49.794;10.024;2022-11-15T08:23:20;10.40;54.20
24636;DHT22;12772;49.794;10.024;2022-11-15T08:27:22;10.50;54.30
24636;DHT22;12772;49.794;10.024;2022-11-15T08:31:24;10.30;54.10
24636;DHT22;12772;49.794;10.024;2022-11-15T08:35:26;10.60;54.50
24636;DHT22;12772;49.794;10.024;2022-11-15T08:39:29;10.70;54.40
24636;DHT22;12772;49.794;10.024;2022-11-15T08:43:32;10.50;54.10
24636;DHT22;12772;49.794;10.024;2022-11-15T08:47:34;10.50;54.10
24636;DHT22;12772;49.794;10.024;2022-11-15T08:51:36;10.80;54.40
24636;DHT22;12772;49.794;10.024;2022-11-15T08:55:40;11.10;54.70
24636;DHT22;12772;49.794;10.024;2022-11-15T08:59:42;10.90;54.40
24636;DHT22;12772;49.794;10.024;2022-11-15T09:03:44;11.10;54.20
24636;DHT22;12772;49.794;10.024;2022-11-15T09:07:47;11.50;54.10
24636;DHT22;12772;49.794;10.024;2022-11-15T09:11:49;11.60;53.90
24636;DHT22;12772;49.794;10.024;2022-11-15T09:15:51;11.90;54.00
24636;DHT22;12772;49.794;10.024;2022-11-15T09:19:53;12.30;54.20
24636;DHT22;12772;49.794;10.024;2022-11-15T09:23:55;12.60;54.00
24636;DHT22;12772;49.794;10.024;2022-11-15T09:27:58;12.80;53.90
24636;DHT22;12772;49.794;10.024;2022-11-15T09:32:00;13.00;53.10
24636;DHT22;12772;49.794;10.024;2022-11-15T09:36:07;13.20;52.60
24636;DHT22;12772;49.794;10.024;2022-11-15T09:40:11;13.40;52.10
24636;DHT22;12772;49.794;10.024;2022-11-15T09:44:42;13.60;51.40
24636;DHT22;12772;49.794;10.024;2022-11-15T09:48:59;13.80;51.30
24636;DHT22;12772;49.794;10.024;2022-11-15T09:53:02;13.90;49.80
24636;DHT22;12772;49.794;10.024;2022-11-15T10:01:17;14.20;48.50
24636;DHT22;12772;49.794;10.024;2022-11-15T10:05:22;14.40;48.70
24636;DHT22;12772;49.794;10.024;2022-11-15T10:09:39;14.60;48.90
24636;DHT22;12772;49.794;10.024;2022-11-15T10:13:45;14.80;48.10
24636;DHT22;12772;49.794;10.024;2022-11-15T10:22:17;15.10;47.40
24636;DHT22;12772;49.794;10.024;2022-11-15T10:26:23;15.30;47.30
24636;DHT22;12772;49.794;10.024;2022-11-15T10:30:40;15.40;47.00
24636;DHT22;12772;49.794;10.024;2022-11-15T10:34:43;15.60;46.60
24636;DHT22;12772;49.794;10.024;2022-11-15T10:47:29;15.80;45.90
24636;DHT22;12772;49.794;10.024;2022-11-15T10:51:46;15.80;45.90
24636;DHT22;12772;49.794;10.024;2022-11-15T10:55:52;15.90;45.40
24636;DHT22;12772;49.794;10.024;2022-11-15T11:04:14;15.90;45.60
24636;DHT22;12772;49.794;10.024;2022-11-15T11:12:31;15.90;45.80
24636;DHT22;12772;49.794;10.024;2022-11-15T11:16:44;16.00;45.90
24636;DHT22;12772;49.794;10.024;2022-11-15T11:20:57;16.00;45.90
24636;DHT22;12772;49.794;10.024;2022-11-15T11:46:55;16.10;46.10
24636;DHT22;12772;49.794;10.024;2022-11-15T11:51:05;16.20;46.10
24636;DHT22;12772;49.794;10.024;2022-11-15T11:55:47;16.20;46.00
24636;DHT22;12772;49.794;10.024;2022-11-15T12:00:04;16.20;46.20
24636;DHT22;12772;49.794;10.024;2022-11-15T12:04:24;16.20;46.60
24636;DHT22;12772;49.794;10.024;2022-11-15T12:08:33;16.20;46.70
24636;DHT22;12772;49.794;10.024;2022-11-15T12:17:02;16.20;46.70
24636;DHT22;12772;49.794;10.024;2022-11-15T12:21:13;16.10;46.30
24636;DHT22;12772;49.794;10.024;2022-11-15T12:29:49;16.10;46.60
24636;DHT22;12772;49.794;10.024;2022-11-15T12:33:56;16.10;46.70
24636;DHT22;12772;49.794;10.024;2022-11-15T12:37:59;16.10;46.70
24636;DHT22;12772;49.794;10.024;2022-11-15T12:46:14;16.10;47.20
24636;DHT22;12772;49.794;10.024;2022-11-15T12:54:56;16.10;47.20
24636;DHT22;12772;49.794;10.024;2022-11-15T12:59:00;16.00;47.60
24636;DHT22;12772;49.794;10.024;2022-11-15T13:03:23;16.00;48.10
24636;DHT22;12772;49.794;10.024;2022-11-15T13:11:48;15.90;48.70
24636;DHT22;12772;49.794;10.024;2022-11-15T13:15:59;15.90;48.90
24636;DHT22;12772;49.794;10.024;2022-11-15T13:24:16;15.90;49.40
24636;DHT22;12772;49.794;10.024;2022-11-15T13:28:23;15.90;49.40
24636;DHT22;12772;49.794;10.024;2022-11-15T13:32:28;15.90;49.30
24636;DHT22;12772;49.794;10.024;2022-11-15T13:36:32;15.90;49.30
24636;DHT22;12772;49.794;10.024;2022-11-15T13:40:36;15.90;49.30
24636;DHT22;12772;49.794;10.024;2022-11-15T13:44:38;15.90;49.30
24636;DHT22;12772;49.794;10.024;2022-11-15T13:48:41;15.90;49.10
24636;DHT22;12772;49.794;10.024;2022-11-15T13:52:44;15.90;49.00
24636;DHT22;12772;49.794;10.024;2022-11-15T13:56:52;15.90;49.50
24636;DHT22;12772;49.794;10.024;2022-11-15T14:01:02;15.90;49.80
24636;DHT22;12772;49.794;10.024;2022-11-15T14:05:19;16.00;49.80
24636;DHT22;12772;49.794;10.024;2022-11-15T14:09:29;16.00;49.70
24636;DHT22;12772;49.794;10.024;2022-11-15T14:13:31;16.00;49.70
24636;DHT22;12772;49.794;10.024;2022-11-15T14:17:36;15.90;49.60
24636;DHT22;12772;49.794;10.024;2022-11-15T14:26:30;15.90;50.20
24636;DHT22;12772;49.794;10.024;2022-11-15T14:30:32;15.90;50.40
24636;DHT22;12772;49.794;10.024;2022-11-15T14:34:34;15.90;50.40
24636;DHT22;12772;49.794;10.024;2022-11-15T14:38:37;15.90;50.40
24636;DHT22;12772;49.794;10.024;2022-11-15T14:42:39;15.90;50.00
24636;DHT22;12772;49.794;10.024;2022-11-15T14:46:41;15.80;50.10
24636;DHT22;12772;49.794;10.024;2022-11-15T14:50:43;15.80;49.80
24636;DHT22;12772;49.794;10.024;2022-11-15T14:54:45;15.80;49.60
24636;DHT22;12772;49.794;10.024;2022-11-15T14:58:48;15.80;49.60
24636;DHT22;12772;49.794;10.024;2022-11-15T15:02:53;15.80;49.60
24636;DHT22;12772;49.794;10.024;2022-11-15T15:06:55;15.70;50.00
24636;DHT22;12772;49.794;10.024;2022-11-15T15:10:57;15.60;50.00
24636;DHT22;12772;49.794;10.024;2022-11-15T15:15:00;15.50;50.00
24636;DHT22;12772;49.794;10.024;2022-11-15T15:19:02;15.50;50.00
24636;DHT22;12772;49.794;10.024;2022-11-15T15:23:04;15.40;49.90
24636;DHT22;12772;49.794;10.024;2022-11-15T15:27:06;15.40;49.80
24636;DHT22;12772;49.794;10.024;2022-11-15T15:31:09;15.30;49.70
24636;DHT22;12772;49.794;10.024;2022-11-15T15:35:13;15.20;49.60
24636;DHT22;12772;49.794;10.024;2022-11-15T15:39:15;15.20;49.60
24636;DHT22;12772;49.794;10.024;2022-11-15T15:43:17;15.10;49.50
24636;DHT22;12772;49.794;10.024;2022-11-15T15:47:23;15.10;49.50
24636;DHT22;12772;49.794;10.024;2022-11-15T15:51:25;15.10;49.50
24636;DHT22;12772;49.794;10.024;2022-11-15T15:55:27;15.00;49.40
24636;DHT22;12772;49.794;10.024;2022-11-15T15:59:29;15.00;49.40
24636;DHT22;12772;49.794;10.024;2022-11-15T16:03:31;14.90;49.60
24636;DHT22;12772;49.794;10.024;2022-11-15T16:07:33;14.90;49.90
24636;DHT22;12772;49.794;10.024;2022-11-15T16:11:35;14.90;50.10
24636;DHT22;12772;49.794;10.024;2022-11-15T16:15:37;14.90;50.20
24636;DHT22;12772;49.794;10.024;2022-11-15T16:19:40;14.80;50.20
24636;DHT22;12772;49.794;10.024;2022-11-15T16:23:42;14.80;50.50
24636;DHT22;12772;49.794;10.024;2022-11-15T16:27:44;14.70;50.60
24636;DHT22;12772;49.794;10.024;2022-11-15T16:31:46;14.70;50.80
24636;DHT22;12772;49.794;10.024;2022-11-15T16:35:48;14.70;51.00
24636;DHT22;12772;49.794;10.024;2022-11-15T16:39:51;14.60;51.20
24636;DHT22;12772;49.794;10.024;2022-11-15T16:43:54;14.60;51.40
24636;DHT22;12772;49.794;10.024;2022-11-15T16:47:56;14.50;51.50
24636;DHT22;12772;49.794;10.024;2022-11-15T16:51:58;14.50;51.50
24636;DHT22;12772;49.794;10.024;2022-11-15T16:56:00;14.50;51.60
24636;DHT22;12772;49.794;10.024;2022-11-15T17:00:03;14.40;51.40
24636;DHT22;12772;49.794;10.024;2022-11-15T17:04:06;14.50;51.50
24636;DHT22;12772;49.794;10.024;2022-11-15T17:08:12;14.40;51.20
24636;DHT22;12772;49.794;10.024;2022-11-15T17:12:14;14.40;51.10
24636;DHT22;12772;49.794;10.024;2022-11-15T17:16:17;14.40;50.80
24636;DHT22;12772;49.794;10.024;2022-11-15T17:20:21;14.40;50.70
24636;DHT22;12772;49.794;10.024;2022-11-15T17:24:23;14.30;50.40
24636;DHT22;12772;49.794;10.024;2022-11-15T17:28:26;14.30;50.40
24636;DHT22;12772;49.794;10.024;2022-11-15T17:32:28;14.30;50.30
24636;DHT22;12772;49.794;10.024;2022-11-15T17:36:30;14.30;50.40
24636;DHT22;12772;49.794;10.024;2022-11-15T17:40:32;14.20;50.20
24636;DHT22;12772;49.794;10.024;2022-11-15T17:44:34;14.20;50.30
24636;DHT22;12772;49.794;10.024;2022-11-15T17:48:37;14.20;50.40
24636;DHT22;12772;49.794;10.024;2022-11-15T17:52:39;14.10;50.30
24636;DHT22;12772;49.794;10.024;2022-11-15T17:56:41;14.10;50.50
24636;DHT22;12772;49.794;10.024;2022-11-15T18:00:46;14.10;50.50
24636;DHT22;12772;49.794;10.024;2022-11-15T18:04:49;14.00;50.40
24636;DHT22;12772;49.794;10.024;2022-11-15T18:08:52;14.10;50.50
24636;DHT22;12772;49.794;10.024;2022-11-15T18:12:55;14.00;50.30
24636;DHT22;12772;49.794;10.024;2022-11-15T18:16:57;14.00;50.20
24636;DHT22;12772;49.794;10.024;2022-11-15T18:21:14;14.00;50.10
24636;DHT22;12772;49.794;10.024;2022-11-15T18:25:18;13.90;49.60
24636;DHT22;12772;49.794;10.024;2022-11-15T18:29:20;13.90;49.80
24636;DHT22;12772;49.794;10.024;2022-11-15T18:33:24;13.90;49.70
24636;DHT22;12772;49.794;10.024;2022-11-15T18:37:26;13.90;49.40
24636;DHT22;12772;49.794;10.024;2022-11-15T18:41:29;13.80;49.40
24636;DHT22;12772;49.794;10.024;2022-11-15T18:45:33;13.80;49.60
24636;DHT22;12772;49.794;10.024;2022-11-15T18:49:35;13.80;49.60
24636;DHT22;12772;49.794;10.024;2022-11-15T18:53:38;13.80;49.60
24636;DHT22;12772;49.794;10.024;2022-11-15T18:57:40;13.70;49.30
24636;DHT22;12772;49.794;10.024;2022-11-15T19:01:44;13.70;49.40
24636;DHT22;12772;49.794;10.024;2022-11-15T19:05:48;13.70;49.50
24636;DHT22;12772;49.794;10.024;2022-11-15T19:09:50;13.70;49.50
24636;DHT22;12772;49.794;10.024;2022-11-15T19:17:55;13.70;49.00
24636;DHT22;12772;49.794;10.024;2022-11-15T19:21:57;13.70;49.10
24636;DHT22;12772;49.794;10.024;2022-11-15T19:26:00;13.70;48.90
24636;DHT22;12772;49.794;10.024;2022-11-15T19:30:04;13.70;48.90
24636;DHT22;12772;49.794;10.024;2022-11-15T19:34:06;13.70;49.10
24636;DHT22;12772;49.794;10.024;2022-11-15T19:38:08;13.70;49.20
24636;DHT22;12772;49.794;10.024;2022-11-15T19:42:10;13.60;49.00
24636;DHT22;12772;49.794;10.024;2022-11-15T19:46:13;13.60;49.30
24636;DHT22;12772;49.794;10.024;2022-11-15T19:50:16;13.60;48.60
24636;DHT22;12772;49.794;10.024;2022-11-15T19:54:18;13.50;48.80
24636;DHT22;12772;49.794;10.024;2022-11-15T19:58:21;13.50;49.00
24636;DHT22;12772;49.794;10.024;2022-11-15T20:02:23;13.50;48.80
24636;DHT22;12772;49.794;10.024;2022-11-15T20:06:31;13.50;48.80
24636;DHT22;12772;49.794;10.024;2022-11-15T20:10:33;13.50;48.70
24636;DHT22;12772;49.794;10.024;2022-11-15T20:14:35;13.50;48.80
24636;DHT22;12772;49.794;10.024;2022-11-15T20:18:37;13.50;48.50
24636;DHT22;12772;49.794;10.024;2022-11-15T20:22:39;13.50;48.60
24636;DHT22;12772;49.794;10.024;2022-11-15T20:26:41;13.40;48.40
24636;DHT22;12772;49.794;10.024;2022-11-15T20:30:45;13.50;48.60
24636;DHT22;12772;49.794;10.024;2022-11-15T20:34:47;13.40;48.70
24636;DHT22;12772;49.794;10.024;2022-11-15T20:38:49;13.30;48.50
24636;DHT22;12772;49.794;10.024;2022-11-15T20:42:52;13.40;48.60
24636;DHT22;12772;49.794;10.024;2022-11-15T20:46:54;13.40;48.80
24636;DHT22;12772;49.794;10.024;2022-11-15T20:51:05;13.40;48.90
24636;DHT22;12772;49.794;10.024;2022-11-15T20:55:07;13.30;49.00
24636;DHT22;12772;49.794;10.024;2022-11-15T20:59:10;13.30;49.20
24636;DHT22;12772;49.794;10.024;2022-11-15T21:03:13;13.30;49.40
24636;DHT22;12772;49.794;10.024;2022-11-15T21:07:15;13.30;49.40
24636;DHT22;12772;49.794;10.024;2022-11-15T21:11:17;13.30;49.50
24636;DHT22;12772;49.794;10.024;2022-11-15T21:15:39;13.30;49.60
24636;DHT22;12772;49.794;10.024;2022-11-15T21:19:41;13.30;49.70
24636;DHT22;12772;49.794;10.024;2022-11-15T21:23:44;13.20;49.70
24636;DHT22;12772;49.794;10.024;2022-11-15T21:27:46;13.20;49.80
24636;DHT22;12772;49.794;10.024;2022-11-15T21:31:49;13.20;49.80
24636;DHT22;12772;49.794;10.024;2022-11-15T21:35:53;13.20;49.80
24636;DHT22;12772;49.794;10.024;2022-11-15T21:39:55;13.20;49.80
24636;DHT22;12772;49.794;10.024;2022-11-15T21:43:58;13.20;49.80
24636;DHT22;12772;49.794;10.024;2022-11-15T21:48:01;13.20;49.50
24636;DHT22;12772;49.794;10.024;2022-11-15T21:52:03;12.90;49.20
24636;DHT22;12772;49.794;10.024;2022-11-15T21:56:05;13.20;49.60
24636;DHT22;12772;49.794;10.024;2022-11-15T22:00:08;13.10;49.50
24636;DHT22;12772;49.794;10.024;2022-11-15T22:04:28;13.10;49.50
24636;DHT22;12772;49.794;10.024;2022-11-15T22:08:30;13.10;49.60
24636;DHT22;12772;49.794;10.024;2022-11-15T22:12:32;13.10;49.70
24636;DHT22;12772;49.794;10.024;2022-11-15T22:16:34;13.10;49.70
24636;DHT22;12772;49.794;10.024;2022-11-15T22:20:37;13.00;49.40
24636;DHT22;12772;49.794;10.024;2022-11-15T22:24:39;13.10;49.50
24636;DHT22;12772;49.794;10.024;2022-11-15T22:28:42;13.00;49.30
24636;DHT22;12772;49.794;10.024;2022-11-15T22:32:44;13.00;49.20
24636;DHT22;12772;49.794;10.024;2022-11-15T22:36:46;13.00;50.20
24636;DHT22;12772;49.794;10.024;2022-11-15T22:40:48;13.00;49.70
24636;DHT22;12772;49.794;10.024;2022-11-15T22:44:51;13.00;49.50
24636;DHT22;12772;49.794;10.024;2022-11-15T22:48:53;13.00;49.30
24636;DHT22;12772;49.794;10.024;2022-11-15T22:52:55;13.00;49.30
24636;DHT22;12772;49.794;10.024;2022-11-15T22:56:57;13.00;49.40
24636;DHT22;12772;49.794;10.024;2022-11-15T23:01:01;13.00;49.30
24636;DHT22;12772;49.794;10.024;2022-11-15T23:05:04;13.00;49.40
24636;DHT22;12772;49.794;10.024;2022-11-15T23:09:07;13.00;49.40
24636;DHT22;12772;49.794;10.024;2022-11-15T23:13:12;13.00;49.50
24636;DHT22;12772;49.794;10.024;2022-11-15T23:17:16;13.00;49.50
24636;DHT22;12772;49.794;10.024;2022-11-15T23:21:30;13.00;49.50
24636;DHT22;12772;49.794;10.024;2022-11-15T23:25:57;13.00;49.60
24636;DHT22;12772;49.794;10.024;2022-11-15T23:29:59;13.10;49.90
24636;DHT22;12772;49.794;10.024;2022-11-15T23:34:19;12.70;49.40
24636;DHT22;12772;49.794;10.024;2022-11-15T23:38:21;12.90;49.60
24636;DHT22;12772;49.794;10.024;2022-11-15T23:42:23;12.60;49.40
24636;DHT22;12772;49.794;10.024;2022-11-15T23:46:25;12.70;49.50
24636;DHT22;12772;49.794;10.024;2022-11-15T23:50:28;13.10;50.00
24636;DHT22;12772;49.794;10.024;2022-11-15T23:54:32;13.00;49.80
24636;DHT22;12772;49.794;10.024;2022-11-15T23:58:34;13.00;49.90
